sensor_id;sensor_type;location;lat;lon;timestamp;temperature;humidity
20398;DHT22;10358;49.590;11.030;2024-01-27T00:00:10;4.60;99.90
20398;DHT22;10358;49.590;11.030;2024-01-27T00:02:36;4.50;99.90
20398;DHT22;10358;49.590;11.030;2024-01-27T00:05:02;4.40;99.90
20398;DHT22;10358;49.590;11.030;2024-01-27T00:07:28;4.40;99.90
20398;DHT22;10358;49.590;11.030;2024-01-27T00:09:55;4.40;99.90
20398;DHT22;10358;49.590;11.030;2024-01-27T00:12:20;4.40;99.90
20398;DHT22;10358;49.590;11.030;2024-01-27T00:14:46;4.40;99.90
20398;DHT22;10358;49.590;11.030;2024-01-27T00:17:12;4.40;99.90
20398;DHT22;10358;49.590;11.030;2024-01-27T00:19:39;4.40;99.90
20398;DHT22;10358;49.590;11.030;2024-01-27T00:22:05;4.40;99.90
20398;DHT22;10358;49.590;11.030;2024-01-27T00:24:30;4.30;99.90
20398;DHT22;10358;49.590;11.030;2024-01-27T00:26:56;4.30;99.90
20398;DHT22;10358;49.590;11.030;2024-01-27T00:29:22;4.30;99.90
20398;DHT22;10358;49.590;11.030;2024-01-27T00:31:47;4.30;99.90
20398;DHT22;10358;49.590;11.030;2024-01-27T00:34:14;4.20;99.90
20398;DHT22;10358;49.590;11.030;2024-01-27T00:36:40;4.20;99.90
20398;DHT22;10358;49.590;11.030;2024-01-27T00:39:07;4.10;99.90
20398;DHT22;10358;49.590;11.030;2024-01-27T00:41:33;4.10;99.90
20398;DHT22;10358;49.590;11.030;2024-01-27T00:43:59;4.10;99.90
20398;DHT22;10358;49.590;11.030;2024-01-27T00:46:25;4.00;99.90
20398;DHT22;10358;49.590;11.030;2024-01-27T00:48:50;4.00;99.90
20398;DHT22;10358;49.590;11.030;2024-01-27T00:51:16;4.00;99.90
20398;DHT22;10358;49.590;11.030;2024-01-27T00:53:41;4.00;99.90
20398;DHT22;10358;49.590;11.030;2024-01-27T00:56:07;4.00;99.90
20398;DHT22;10358;49.590;11.030;2024-01-27T00:58:32;4.00;99.90
20398;DHT22;10358;49.590;11.030;2024-01-27T01:01:00;4.00;99.90
20398;DHT22;10358;49.590;11.030;2024-01-27T01:03:26;3.90;99.90
20398;DHT22;10358;49.590;11.030;2024-01-27T01:05:52;3.90;99.90
20398;DHT22;10358;49.590;11.030;2024-01-27T01:08:17;3.90;99.90
20398;DHT22;10358;49.590;11.030;2024-01-27T01:10:44;3.90;99.90
20398;DHT22;10358;49.590;11.030;2024-01-27T01:13:09;3.90;99.90
20398;DHT22;10358;49.590;11.030;2024-01-27T01:15:35;3.90;99.90
20398;DHT22;10358;49.590;11.030;2024-01-27T01:18:00;3.80;99.90
20398;DHT22;10358;49.590;11.030;2024-01-27T01:20:26;3.80;99.90
20398;DHT22;10358;49.590;11.030;2024-01-27T01:22:53;3.80;99.90
20398;DHT22;10358;49.590;11.030;2024-01-27T01:25:18;3.70;99.90
20398;DHT22;10358;49.590;11.030;2024-01-27T01:27:45;3.70;99.90
20398;DHT22;10358;49.590;11.030;2024-01-27T01:30:11;3.70;99.90
20398;DHT22;10358;49.590;11.030;2024-01-27T01:32:37;3.70;99.90
20398;DHT22;10358;49.590;11.030;2024-01-27T01:35:02;3.70;99.90
20398;DHT22;10358;49.590;11.030;2024-01-27T01:37:30;3.70;99.90
20398;DHT22;10358;49.590;11.030;2024-01-27T01:39:56;3.70;99.90
20398;DHT22;10358;49.590;11.030;2024-01-27T01:42:21;3.70;99.90
20398;DHT22;10358;49.590;11.030;2024-01-27T01:44:51;3.60;99.90
20398;DHT22;10358;49.590;11.030;2024-01-27T01:47:17;3.60;99.90
20398;DHT22;10358;49.590;11.030;2024-01-27T01:49:42;3.60;99.90
20398;DHT22;10358;49.590;11.030;2024-01-27T01:52:09;3.50;99.90
20398;DHT22;10358;49.590;11.030;2024-01-27T01:54:35;3.50;99.90
20398;DHT22;10358;49.590;11.030;2024-01-27T01:57:02;3.50;99.90
20398;DHT22;10358;49.590;11.030;2024-01-27T01:59:28;3.50;99.90
20398;DHT22;10358;49.590;11.030;2024-01-27T02:01:54;3.40;99.90
20398;DHT22;10358;49.590;11.030;2024-01-27T02:04:19;3.40;99.90
20398;DHT22;10358;49.590;11.030;2024-01-27T02:06:45;3.40;99.90
20398;DHT22;10358;49.590;11.030;2024-01-27T02:09:10;3.40;99.90
20398;DHT22;10358;49.590;11.030;2024-01-27T02:11:36;3.30;99.90
20398;DHT22;10358;49.590;11.030;2024-01-27T02:14:02;3.30;99.90
20398;DHT22;10358;49.590;11.030;2024-01-27T02:16:27;3.20;99.90
20398;DHT22;10358;49.590;11.030;2024-01-27T02:18:53;3.20;99.90
20398;DHT22;10358;49.590;11.030;2024-01-27T02:21:18;3.20;99.90
20398;DHT22;10358;49.590;11.030;2024-01-27T02:23:44;3.10;99.90
20398;DHT22;10358;49.590;11.030;2024-01-27T02:26:09;3.10;99.90
20398;DHT22;10358;49.590;11.030;2024-01-27T02:28:35;3.10;99.90
20398;DHT22;10358;49.590;11.030;2024-01-27T02:31:01;3.00;99.90
20398;DHT22;10358;49.590;11.030;2024-01-27T02:33:27;3.00;99.90
20398;DHT22;10358;49.590;11.030;2024-01-27T02:35:54;3.00;99.90
20398;DHT22;10358;49.590;11.030;2024-01-27T02:38:20;2.90;99.90
20398;DHT22;10358;49.590;11.030;2024-01-27T02:40:45;2.90;99.90
20398;DHT22;10358;49.590;11.030;2024-01-27T02:43:11;2.90;99.90
20398;DHT22;10358;49.590;11.030;2024-01-27T02:45:36;2.80;99.90
20398;DHT22;10358;49.590;11.030;2024-01-27T02:48:02;2.80;99.90
20398;DHT22;10358;49.590;11.030;2024-01-27T02:50:28;2.80;99.90
20398;DHT22;10358;49.590;11.030;2024-01-27T02:52:54;2.80;99.90
20398;DHT22;10358;49.590;11.030;2024-01-27T02:55:19;2.80;99.90
20398;DHT22;10358;49.590;11.030;2024-01-27T02:57:45;2.70;99.90
20398;DHT22;10358;49.590;11.030;2024-01-27T03:00:10;2.70;99.90
20398;DHT22;10358;49.590;11.030;2024-01-27T03:02:37;2.60;99.90
20398;DHT22;10358;49.590;11.030;2024-01-27T03:05:03;2.60;99.90
20398;DHT22;10358;49.590;11.030;2024-01-27T03:07:29;2.60;99.90
20398;DHT22;10358;49.590;11.030;2024-01-27T03:09:54;2.60;99.90
20398;DHT22;10358;49.590;11.030;2024-01-27T03:12:20;2.60;99.90
20398;DHT22;10358;49.590;11.030;2024-01-27T03:14:48;2.60;99.90
20398;DHT22;10358;49.590;11.030;2024-01-27T03:17:15;2.60;99.90
20398;DHT22;10358;49.590;11.030;2024-01-27T03:19:40;2.60;99.90
20398;DHT22;10358;49.590;11.030;2024-01-27T03:22:06;2.50;99.90
20398;DHT22;10358;49.590;11.030;2024-01-27T03:24:31;2.50;99.90
20398;DHT22;10358;49.590;11.030;2024-01-27T03:26:57;2.50;99.90
20398;DHT22;10358;49.590;11.030;2024-01-27T03:29:24;2.50;99.90
20398;DHT22;10358;49.590;11.030;2024-01-27T03:31:49;2.40;99.90
20398;DHT22;10358;49.590;11.030;2024-01-27T03:34:15;2.40;99.90
20398;DHT22;10358;49.590;11.030;2024-01-27T03:36:43;2.40;99.90
20398;DHT22;10358;49.590;11.030;2024-01-27T03:39:08;2.40;99.90
20398;DHT22;10358;49.590;11.030;2024-01-27T03:41:35;2.40;99.90
20398;DHT22;10358;49.590;11.030;2024-01-27T03:44:01;2.40;99.90
20398;DHT22;10358;49.590;11.030;2024-01-27T03:46:26;2.40;99.90
20398;DHT22;10358;49.590;11.030;2024-01-27T03:48:52;2.30;99.90
20398;DHT22;10358;49.590;11.030;2024-01-27T03:51:17;2.30;99.90
20398;DHT22;10358;49.590;11.030;2024-01-27T03:53:43;2.20;99.90
20398;DHT22;10358;49.590;11.030;2024-01-27T03:56:11;2.20;99.90
20398;DHT22;10358;49.590;11.030;2024-01-27T03:58:37;2.10;99.90
20398;DHT22;10358;49.590;11.030;2024-01-27T04:01:04;2.10;99.90
20398;DHT22;10358;49.590;11.030;2024-01-27T04:03:30;2.10;99.90
20398;DHT22;10358;49.590;11.030;2024-01-27T04:05:55;2.10;99.90
20398;DHT22;10358;49.590;11.030;2024-01-27T04:08:21;2.10;99.90
20398;DHT22;10358;49.590;11.030;2024-01-27T04:10:46;2.10;99.90
20398;DHT22;10358;49.590;11.030;2024-01-27T04:13:12;2.10;99.90
20398;DHT22;10358;49.590;11.030;2024-01-27T04:15:38;2.10;99.90
20398;DHT22;10358;49.590;11.030;2024-01-27T04:18:06;2.10;99.90
20398;DHT22;10358;49.590;11.030;2024-01-27T04:20:34;2.10;99.90
20398;DHT22;10358;49.590;11.030;2024-01-27T04:23:00;2.10;99.90
20398;DHT22;10358;49.590;11.030;2024-01-27T04:25:26;2.10;99.90
20398;DHT22;10358;49.590;11.030;2024-01-27T04:27:53;2.00;99.90
20398;DHT22;10358;49.590;11.030;2024-01-27T04:30:18;2.00;99.90
20398;DHT22;10358;49.590;11.030;2024-01-27T04:32:44;1.90;99.90
20398;DHT22;10358;49.590;11.030;2024-01-27T04:35:10;1.90;99.90
20398;DHT22;10358;49.590;11.030;2024-01-27T04:37:36;1.90;99.90
20398;DHT22;10358;49.590;11.030;2024-01-27T04:40:04;1.90;99.90
20398;DHT22;10358;49.590;11.030;2024-01-27T04:42:32;1.80;99.90
20398;DHT22;10358;49.590;11.030;2024-01-27T04:44:58;1.90;99.90
20398;DHT22;10358;49.590;11.030;2024-01-27T04:47:23;1.80;99.90
20398;DHT22;10358;49.590;11.030;2024-01-27T04:49:49;1.80;99.90
20398;DHT22;10358;49.590;11.030;2024-01-27T04:52:14;1.80;99.90
20398;DHT22;10358;49.590;11.030;2024-01-27T04:54:40;1.80;99.90
20398;DHT22;10358;49.590;11.030;2024-01-27T04:57:05;1.80;99.90
20398;DHT22;10358;49.590;11.030;2024-01-27T04:59:31;1.80;99.90
20398;DHT22;10358;49.590;11.030;2024-01-27T05:01:57;1.80;99.90
20398;DHT22;10358;49.590;11.030;2024-01-27T05:04:22;1.70;99.90
20398;DHT22;10358;49.590;11.030;2024-01-27T05:06:52;1.70;99.90
20398;DHT22;10358;49.590;11.030;2024-01-27T05:09:17;1.60;99.90
20398;DHT22;10358;49.590;11.030;2024-01-27T05:11:43;1.50;99.90
20398;DHT22;10358;49.590;11.030;2024-01-27T05:14:10;1.50;99.90
20398;DHT22;10358;49.590;11.030;2024-01-27T05:16:36;1.40;99.90
20398;DHT22;10358;49.590;11.030;2024-01-27T05:19:02;1.20;99.90
20398;DHT22;10358;49.590;11.030;2024-01-27T05:21:27;1.20;99.90
20398;DHT22;10358;49.590;11.030;2024-01-27T05:23:53;1.10;99.90
20398;DHT22;10358;49.590;11.030;2024-01-27T05:26:20;1.10;99.90
20398;DHT22;10358;49.590;11.030;2024-01-27T05:28:45;1.00;99.90
20398;DHT22;10358;49.590;11.030;2024-01-27T05:31:11;0.90;99.90
20398;DHT22;10358;49.590;11.030;2024-01-27T05:33:37;0.90;99.90
20398;DHT22;10358;49.590;11.030;2024-01-27T05:36:05;1.00;99.90
20398;DHT22;10358;49.590;11.030;2024-01-27T05:38:31;0.90;99.90
20398;DHT22;10358;49.590;11.030;2024-01-27T05:41:00;0.90;99.90
20398;DHT22;10358;49.590;11.030;2024-01-27T05:43:25;0.80;99.90
20398;DHT22;10358;49.590;11.030;2024-01-27T05:45:51;0.80;99.90
20398;DHT22;10358;49.590;11.030;2024-01-27T05:48:16;0.80;99.90
20398;DHT22;10358;49.590;11.030;2024-01-27T05:50:42;0.70;99.90
20398;DHT22;10358;49.590;11.030;2024-01-27T05:53:08;0.60;99.90
20398;DHT22;10358;49.590;11.030;2024-01-27T05:55:34;0.60;99.90
20398;DHT22;10358;49.590;11.030;2024-01-27T05:57:59;0.50;99.90
20398;DHT22;10358;49.590;11.030;2024-01-27T06:00:25;0.50;99.90
20398;DHT22;10358;49.590;11.030;2024-01-27T06:02:52;0.50;99.90
20398;DHT22;10358;49.590;11.030;2024-01-27T06:05:18;0.50;99.90
20398;DHT22;10358;49.590;11.030;2024-01-27T06:07:44;0.50;99.90
20398;DHT22;10358;49.590;11.030;2024-01-27T06:10:11;0.50;99.90
20398;DHT22;10358;49.590;11.030;2024-01-27T06:12:38;0.50;99.90
20398;DHT22;10358;49.590;11.030;2024-01-27T06:15:04;0.40;99.90
20398;DHT22;10358;49.590;11.030;2024-01-27T06:17:31;0.40;99.90
20398;DHT22;10358;49.590;11.030;2024-01-27T06:19:56;0.50;99.90
20398;DHT22;10358;49.590;11.030;2024-01-27T06:22:22;0.40;99.90
20398;DHT22;10358;49.590;11.030;2024-01-27T06:24:47;0.40;99.90
20398;DHT22;10358;49.590;11.030;2024-01-27T06:27:13;0.40;99.90
20398;DHT22;10358;49.590;11.030;2024-01-27T06:29:39;0.40;99.90
20398;DHT22;10358;49.590;11.030;2024-01-27T06:32:05;0.40;99.90
20398;DHT22;10358;49.590;11.030;2024-01-27T06:34:32;0.30;99.90
20398;DHT22;10358;49.590;11.030;2024-01-27T06:36:57;0.20;99.90
20398;DHT22;10358;49.590;11.030;2024-01-27T06:39:23;0.20;99.90
20398;DHT22;10358;49.590;11.030;2024-01-27T06:41:49;0.20;99.90
20398;DHT22;10358;49.590;11.030;2024-01-27T06:44:14;0.20;99.90
20398;DHT22;10358;49.590;11.030;2024-01-27T06:46:40;0.20;99.90
20398;DHT22;10358;49.590;11.030;2024-01-27T06:49:05;0.10;99.90
20398;DHT22;10358;49.590;11.030;2024-01-27T06:51:31;0.10;99.90
20398;DHT22;10358;49.590;11.030;2024-01-27T06:53:56;0.00;99.90
20398;DHT22;10358;49.590;11.030;2024-01-27T06:56:22;-0.10;99.90
20398;DHT22;10358;49.590;11.030;2024-01-27T06:58:47;-0.10;99.90
20398;DHT22;10358;49.590;11.030;2024-01-27T07:01:14;-0.10;99.90
20398;DHT22;10358;49.590;11.030;2024-01-27T07:03:41;-0.10;99.90
20398;DHT22;10358;49.590;11.030;2024-01-27T07:06:06;-0.20;99.90
20398;DHT22;10358;49.590;11.030;2024-01-27T07:08:32;-0.20;99.90
20398;DHT22;10358;49.590;11.030;2024-01-27T07:10:58;-0.20;99.90
20398;DHT22;10358;49.590;11.030;2024-01-27T07:13:24;-0.20;99.90
20398;DHT22;10358;49.590;11.030;2024-01-27T07:15:50;-0.20;99.90
20398;DHT22;10358;49.590;11.030;2024-01-27T07:18:16;-0.20;99.90
20398;DHT22;10358;49.590;11.030;2024-01-27T07:20:42;-0.20;99.90
20398;DHT22;10358;49.590;11.030;2024-01-27T07:23:08;-0.10;99.90
20398;DHT22;10358;49.590;11.030;2024-01-27T07:25:34;-0.10;99.90
20398;DHT22;10358;49.590;11.030;2024-01-27T07:27:59;0.00;99.90
20398;DHT22;10358;49.590;11.030;2024-01-27T07:30:25;0.00;99.90
20398;DHT22;10358;49.590;11.030;2024-01-27T07:32:50;0.00;99.90
20398;DHT22;10358;49.590;11.030;2024-01-27T07:35:16;0.00;99.90
20398;DHT22;10358;49.590;11.030;2024-01-27T07:37:41;0.10;99.90
20398;DHT22;10358;49.590;11.030;2024-01-27T07:40:09;0.10;99.90
20398;DHT22;10358;49.590;11.030;2024-01-27T07:42:35;0.10;99.90
20398;DHT22;10358;49.590;11.030;2024-01-27T07:45:00;0.10;99.90
20398;DHT22;10358;49.590;11.030;2024-01-27T07:47:26;0.20;99.90
20398;DHT22;10358;49.590;11.030;2024-01-27T07:49:51;0.20;99.90
20398;DHT22;10358;49.590;11.030;2024-01-27T07:52:17;0.20;99.90
20398;DHT22;10358;49.590;11.030;2024-01-27T07:54:44;0.20;99.90
20398;DHT22;10358;49.590;11.030;2024-01-27T07:57:11;0.30;99.90
20398;DHT22;10358;49.590;11.030;2024-01-27T07:59:37;0.30;99.90
20398;DHT22;10358;49.590;11.030;2024-01-27T08:02:03;0.40;99.90
20398;DHT22;10358;49.590;11.030;2024-01-27T08:04:30;0.50;99.90
20398;DHT22;10358;49.590;11.030;2024-01-27T08:06:56;0.50;99.90
20398;DHT22;10358;49.590;11.030;2024-01-27T08:09:21;0.60;99.90
20398;DHT22;10358;49.590;11.030;2024-01-27T08:11:47;0.70;99.90
20398;DHT22;10358;49.590;11.030;2024-01-27T08:14:16;0.80;99.90
20398;DHT22;10358;49.590;11.030;2024-01-27T08:16:42;0.90;99.90
20398;DHT22;10358;49.590;11.030;2024-01-27T08:19:08;1.00;99.90
20398;DHT22;10358;49.590;11.030;2024-01-27T08:21:34;1.10;99.90
20398;DHT22;10358;49.590;11.030;2024-01-27T08:23:59;1.10;99.90
20398;DHT22;10358;49.590;11.030;2024-01-27T08:26:25;1.30;99.90
20398;DHT22;10358;49.590;11.030;2024-01-27T08:28:51;1.30;99.90
20398;DHT22;10358;49.590;11.030;2024-01-27T08:31:17;1.40;99.90
20398;DHT22;10358;49.590;11.030;2024-01-27T08:33:42;1.50;99.90
20398;DHT22;10358;49.590;11.030;2024-01-27T08:36:13;1.60;99.90
20398;DHT22;10358;49.590;11.030;2024-01-27T08:38:40;1.60;99.90
20398;DHT22;10358;49.590;11.030;2024-01-27T08:41:06;1.70;99.90
20398;DHT22;10358;49.590;11.030;2024-01-27T08:43:32;1.80;99.90
20398;DHT22;10358;49.590;11.030;2024-01-27T08:45:58;1.90;99.90
20398;DHT22;10358;49.590;11.030;2024-01-27T08:48:25;2.00;99.90
20398;DHT22;10358;49.590;11.030;2024-01-27T08:50:51;2.20;99.90
20398;DHT22;10358;49.590;11.030;2024-01-27T08:53:16;2.30;99.90
20398;DHT22;10358;49.590;11.030;2024-01-27T08:55:42;2.40;99.90
20398;DHT22;10358;49.590;11.030;2024-01-27T08:58:08;2.50;99.90
20398;DHT22;10358;49.590;11.030;2024-01-27T09:00:33;2.50;99.90
20398;DHT22;10358;49.590;11.030;2024-01-27T09:02:59;2.60;99.90
20398;DHT22;10358;49.590;11.030;2024-01-27T09:05:25;2.70;99.90
20398;DHT22;10358;49.590;11.030;2024-01-27T09:07:50;2.80;99.90
20398;DHT22;10358;49.590;11.030;2024-01-27T09:10:16;2.90;99.90
20398;DHT22;10358;49.590;11.030;2024-01-27T09:12:42;3.00;99.90
20398;DHT22;10358;49.590;11.030;2024-01-27T09:15:08;3.10;99.90
20398;DHT22;10358;49.590;11.030;2024-01-27T09:17:33;3.20;99.90
20398;DHT22;10358;49.590;11.030;2024-01-27T09:19:59;3.30;99.90
20398;DHT22;10358;49.590;11.030;2024-01-27T09:22:24;3.30;99.90
20398;DHT22;10358;49.590;11.030;2024-01-27T09:24:51;3.40;99.90
20398;DHT22;10358;49.590;11.030;2024-01-27T09:27:17;3.40;99.90
20398;DHT22;10358;49.590;11.030;2024-01-27T09:29:42;3.50;99.90
20398;DHT22;10358;49.590;11.030;2024-01-27T09:32:08;3.60;99.90
20398;DHT22;10358;49.590;11.030;2024-01-27T09:34:34;3.70;99.90
20398;DHT22;10358;49.590;11.030;2024-01-27T09:37:01;3.70;99.90
20398;DHT22;10358;49.590;11.030;2024-01-27T09:39:26;3.80;99.90
20398;DHT22;10358;49.590;11.030;2024-01-27T09:41:54;3.80;99.90
20398;DHT22;10358;49.590;11.030;2024-01-27T09:44:19;4.00;99.90
20398;DHT22;10358;49.590;11.030;2024-01-27T09:46:45;4.00;99.90
20398;DHT22;10358;49.590;11.030;2024-01-27T09:49:13;4.00;99.90
20398;DHT22;10358;49.590;11.030;2024-01-27T09:51:42;4.10;99.90
20398;DHT22;10358;49.590;11.030;2024-01-27T09:54:09;4.10;99.90
20398;DHT22;10358;49.590;11.030;2024-01-27T09:56:46;4.20;99.90
20398;DHT22;10358;49.590;11.030;2024-01-27T09:59:12;4.30;99.90
20398;DHT22;10358;49.590;11.030;2024-01-27T10:01:39;4.30;99.90
20398;DHT22;10358;49.590;11.030;2024-01-27T10:04:08;4.40;99.90
20398;DHT22;10358;49.590;11.030;2024-01-27T10:06:34;4.50;99.90
20398;DHT22;10358;49.590;11.030;2024-01-27T10:08:59;4.50;99.90
20398;DHT22;10358;49.590;11.030;2024-01-27T10:11:26;4.50;99.90
20398;DHT22;10358;49.590;11.030;2024-01-27T10:13:54;4.60;99.90
20398;DHT22;10358;49.590;11.030;2024-01-27T10:16:21;4.60;99.90
20398;DHT22;10358;49.590;11.030;2024-01-27T10:18:46;4.70;99.90
20398;DHT22;10358;49.590;11.030;2024-01-27T10:21:13;4.70;99.90
20398;DHT22;10358;49.590;11.030;2024-01-27T10:23:40;4.80;99.90
20398;DHT22;10358;49.590;11.030;2024-01-27T10:26:08;4.80;99.90
20398;DHT22;10358;49.590;11.030;2024-01-27T10:28:33;4.90;99.90
20398;DHT22;10358;49.590;11.030;2024-01-27T10:31:12;4.80;99.90
20398;DHT22;10358;49.590;11.030;2024-01-27T10:33:51;4.90;99.90
20398;DHT22;10358;49.590;11.030;2024-01-27T10:36:19;4.90;99.90
20398;DHT22;10358;49.590;11.030;2024-01-27T10:38:45;5.00;99.90
20398;DHT22;10358;49.590;11.030;2024-01-27T10:41:10;5.00;99.90
20398;DHT22;10358;49.590;11.030;2024-01-27T10:43:37;5.00;99.90
20398;DHT22;10358;49.590;11.030;2024-01-27T10:46:06;5.00;99.90
20398;DHT22;10358;49.590;11.030;2024-01-27T10:48:36;4.90;99.90
20398;DHT22;10358;49.590;11.030;2024-01-27T10:51:09;5.00;99.90
20398;DHT22;10358;49.590;11.030;2024-01-27T10:53:36;5.00;99.90
20398;DHT22;10358;49.590;11.030;2024-01-27T10:56:03;5.00;99.90
20398;DHT22;10358;49.590;11.030;2024-01-27T10:58:35;5.10;99.90
20398;DHT22;10358;49.590;11.030;2024-01-27T11:01:09;5.10;99.90
20398;DHT22;10358;49.590;11.030;2024-01-27T11:03:40;5.20;99.90
20398;DHT22;10358;49.590;11.030;2024-01-27T11:06:07;5.30;99.90
20398;DHT22;10358;49.590;11.030;2024-01-27T11:08:37;5.30;99.90
20398;DHT22;10358;49.590;11.030;2024-01-27T11:11:03;5.30;99.90
20398;DHT22;10358;49.590;11.030;2024-01-27T11:13:30;5.30;99.90
20398;DHT22;10358;49.590;11.030;2024-01-27T11:15:57;5.30;99.90
20398;DHT22;10358;49.590;11.030;2024-01-27T11:18:25;5.40;99.90
20398;DHT22;10358;49.590;11.030;2024-01-27T11:20:55;5.40;99.90
20398;DHT22;10358;49.590;11.030;2024-01-27T11:23:33;5.40;99.90
20398;DHT22;10358;49.590;11.030;2024-01-27T11:26:06;5.50;99.90
20398;DHT22;10358;49.590;11.030;2024-01-27T11:28:32;5.50;99.90
20398;DHT22;10358;49.590;11.030;2024-01-27T11:30:57;5.50;99.90
20398;DHT22;10358;49.590;11.030;2024-01-27T11:33:26;5.60;99.90
20398;DHT22;10358;49.590;11.030;2024-01-27T11:36:01;5.60;99.90
20398;DHT22;10358;49.590;11.030;2024-01-27T11:38:28;5.60;99.90
20398;DHT22;10358;49.590;11.030;2024-01-27T11:40:53;5.60;99.90
20398;DHT22;10358;49.590;11.030;2024-01-27T11:43:19;5.70;99.90
20398;DHT22;10358;49.590;11.030;2024-01-27T11:45:58;5.80;99.90
20398;DHT22;10358;49.590;11.030;2024-01-27T11:48:24;5.80;99.90
20398;DHT22;10358;49.590;11.030;2024-01-27T11:51:05;5.90;99.90
20398;DHT22;10358;49.590;11.030;2024-01-27T11:53:31;5.90;99.90
20398;DHT22;10358;49.590;11.030;2024-01-27T11:55:56;5.90;99.90
20398;DHT22;10358;49.590;11.030;2024-01-27T11:58:22;5.90;99.90
20398;DHT22;10358;49.590;11.030;2024-01-27T12:00:48;5.90;99.90
20398;DHT22;10358;49.590;11.030;2024-01-27T12:03:13;5.90;99.90
20398;DHT22;10358;49.590;11.030;2024-01-27T12:05:39;6.00;99.90
20398;DHT22;10358;49.590;11.030;2024-01-27T12:08:08;6.10;99.90
20398;DHT22;10358;49.590;11.030;2024-01-27T12:10:33;6.10;99.90
20398;DHT22;10358;49.590;11.030;2024-01-27T12:13:00;6.20;99.90
20398;DHT22;10358;49.590;11.030;2024-01-27T12:15:26;6.20;99.90
20398;DHT22;10358;49.590;11.030;2024-01-27T12:17:52;6.30;99.90
20398;DHT22;10358;49.590;11.030;2024-01-27T12:20:18;6.40;99.90
20398;DHT22;10358;49.590;11.030;2024-01-27T12:22:44;6.40;99.90
20398;DHT22;10358;49.590;11.030;2024-01-27T12:25:11;6.50;99.90
20398;DHT22;10358;49.590;11.030;2024-01-27T12:27:42;6.50;99.90
20398;DHT22;10358;49.590;11.030;2024-01-27T12:30:09;6.60;99.90
20398;DHT22;10358;49.590;11.030;2024-01-27T12:32:35;6.60;99.90
20398;DHT22;10358;49.590;11.030;2024-01-27T12:35:05;6.60;99.90
20398;DHT22;10358;49.590;11.030;2024-01-27T12:37:31;6.70;99.90
20398;DHT22;10358;49.590;11.030;2024-01-27T12:39:57;6.70;99.90
20398;DHT22;10358;49.590;11.030;2024-01-27T12:42:23;6.80;99.90
20398;DHT22;10358;49.590;11.030;2024-01-27T12:44:48;6.90;99.90
20398;DHT22;10358;49.590;11.030;2024-01-27T12:47:14;6.90;99.90
20398;DHT22;10358;49.590;11.030;2024-01-27T12:49:40;6.80;99.90
20398;DHT22;10358;49.590;11.030;2024-01-27T12:52:08;6.80;99.90
20398;DHT22;10358;49.590;11.030;2024-01-27T12:54:36;6.80;99.90
20398;DHT22;10358;49.590;11.030;2024-01-27T12:57:02;6.80;99.90
20398;DHT22;10358;49.590;11.030;2024-01-27T12:59:28;6.80;99.90
20398;DHT22;10358;49.590;11.030;2024-01-27T13:02:00;6.90;99.90
20398;DHT22;10358;49.590;11.030;2024-01-27T13:04:25;6.90;99.90
20398;DHT22;10358;49.590;11.030;2024-01-27T13:06:52;6.90;99.90
20398;DHT22;10358;49.590;11.030;2024-01-27T13:09:19;6.90;99.90
20398;DHT22;10358;49.590;11.030;2024-01-27T13:11:45;7.10;99.90
20398;DHT22;10358;49.590;11.030;2024-01-27T13:14:11;7.20;99.90
20398;DHT22;10358;49.590;11.030;2024-01-27T13:16:39;7.20;99.90
20398;DHT22;10358;49.590;11.030;2024-01-27T13:19:04;7.20;99.90
20398;DHT22;10358;49.590;11.030;2024-01-27T13:21:30;7.10;99.90
20398;DHT22;10358;49.590;11.030;2024-01-27T13:23:56;7.10;99.90
20398;DHT22;10358;49.590;11.030;2024-01-27T13:26:21;7.10;99.90
20398;DHT22;10358;49.590;11.030;2024-01-27T13:28:47;7.10;99.90
20398;DHT22;10358;49.590;11.030;2024-01-27T13:31:15;7.10;99.90
20398;DHT22;10358;49.590;11.030;2024-01-27T13:33:42;7.30;99.90
20398;DHT22;10358;49.590;11.030;2024-01-27T13:36:08;7.30;99.90
20398;DHT22;10358;49.590;11.030;2024-01-27T13:38:33;7.40;99.90
20398;DHT22;10358;49.590;11.030;2024-01-27T13:41:01;7.40;99.90
20398;DHT22;10358;49.590;11.030;2024-01-27T13:43:28;7.30;99.90
20398;DHT22;10358;49.590;11.030;2024-01-27T13:45:53;7.30;99.90
20398;DHT22;10358;49.590;11.030;2024-01-27T13:48:20;7.30;99.90
20398;DHT22;10358;49.590;11.030;2024-01-27T13:50:46;7.30;99.90
20398;DHT22;10358;49.590;11.030;2024-01-27T13:53:11;7.20;99.90
20398;DHT22;10358;49.590;11.030;2024-01-27T13:55:37;7.20;99.90
20398;DHT22;10358;49.590;11.030;2024-01-27T13:58:03;7.20;99.90
20398;DHT22;10358;49.590;11.030;2024-01-27T14:00:29;7.10;99.90
20398;DHT22;10358;49.590;11.030;2024-01-27T14:02:56;7.00;99.90
20398;DHT22;10358;49.590;11.030;2024-01-27T14:05:21;7.10;99.90
20398;DHT22;10358;49.590;11.030;2024-01-27T14:07:47;7.40;99.90
20398;DHT22;10358;49.590;11.030;2024-01-27T14:10:12;7.50;99.90
20398;DHT22;10358;49.590;11.030;2024-01-27T14:12:38;7.80;99.90
20398;DHT22;10358;49.590;11.030;2024-01-27T14:15:05;7.80;99.90
20398;DHT22;10358;49.590;11.030;2024-01-27T14:17:35;7.80;99.90
20398;DHT22;10358;49.590;11.030;2024-01-27T14:20:02;7.70;99.90
20398;DHT22;10358;49.590;11.030;2024-01-27T14:22:27;7.60;99.90
20398;DHT22;10358;49.590;11.030;2024-01-27T14:24:53;7.70;99.90
20398;DHT22;10358;49.590;11.030;2024-01-27T14:27:18;7.80;99.90
20398;DHT22;10358;49.590;11.030;2024-01-27T14:29:54;7.90;99.90
20398;DHT22;10358;49.590;11.030;2024-01-27T14:32:19;8.00;99.90
20398;DHT22;10358;49.590;11.030;2024-01-27T14:34:45;8.10;99.90
20398;DHT22;10358;49.590;11.030;2024-01-27T14:37:11;8.20;99.90
20398;DHT22;10358;49.590;11.030;2024-01-27T14:39:39;8.10;99.90
20398;DHT22;10358;49.590;11.030;2024-01-27T14:42:07;8.00;99.90
20398;DHT22;10358;49.590;11.030;2024-01-27T14:44:33;8.10;99.90
20398;DHT22;10358;49.590;11.030;2024-01-27T14:46:59;8.00;99.90
20398;DHT22;10358;49.590;11.030;2024-01-27T14:49:25;8.10;99.90
20398;DHT22;10358;49.590;11.030;2024-01-27T14:51:53;8.40;99.90
20398;DHT22;10358;49.590;11.030;2024-01-27T14:54:18;8.40;99.90
20398;DHT22;10358;49.590;11.030;2024-01-27T14:56:44;8.60;99.90
20398;DHT22;10358;49.590;11.030;2024-01-27T14:59:10;8.60;99.90
20398;DHT22;10358;49.590;11.030;2024-01-27T15:01:35;8.80;99.90
20398;DHT22;10358;49.590;11.030;2024-01-27T15:04:01;9.00;99.90
20398;DHT22;10358;49.590;11.030;2024-01-27T15:06:27;9.30;99.90
20398;DHT22;10358;49.590;11.030;2024-01-27T15:08:53;9.40;99.90
20398;DHT22;10358;49.590;11.030;2024-01-27T15:11:19;9.50;99.90
20398;DHT22;10358;49.590;11.030;2024-01-27T15:13:44;9.70;99.90
20398;DHT22;10358;49.590;11.030;2024-01-27T15:16:10;9.80;99.90
20398;DHT22;10358;49.590;11.030;2024-01-27T15:18:37;9.90;99.90
20398;DHT22;10358;49.590;11.030;2024-01-27T15:21:07;10.00;99.90
20398;DHT22;10358;49.590;11.030;2024-01-27T15:23:32;10.00;99.90